Time;durP1;ratioP1;P1;durP2;ratioP2;P2;SDS_P1;SDS_P2;PMS_P1;PMS_P2;Temp;Humidity;BMP_temperature;BMP_pressure;BME280_temperature;BME280_humidity;BME280_pressure;Samples;Min_cycle;Max_cycle;Signal;HPM_P1;HPM_P2
2023/09/05 00:00:05;;;;;;;8.48;6.95;;;16.10;99.90;;;;;;4990485;28;20045;-75
2023/09/05 00:02:30;;;;;;;7.78;6.93;;;16.00;99.90;;;;;;4988472;28;20080;-75
2023/09/05 00:04:56;;;;;;;8.10;7.15;;;16.00;99.90;;;;;;4971298;28;20129;-75
2023/09/05 00:07:22;;;;;;;7.70;6.90;;;16.00;99.90;;;;;;4990761;28;20048;-75
2023/09/05 00:09:48;;;;;;;7.45;6.72;;;16.00;99.90;;;;;;4974403;28;20350;-76
2023/09/05 00:12:13;;;;;;;7.75;6.95;;;15.90;99.90;;;;;;4974255;28;20065;-75
2023/09/05 00:14:39;;;;;;;8.55;7.10;;;15.90;99.90;;;;;;4989762;28;20042;-75
2023/09/05 00:17:05;;;;;;;8.68;6.93;;;15.90;99.90;;;;;;4989660;28;20042;-75
2023/09/05 00:19:30;;;;;;;7.75;6.95;;;15.80;99.90;;;;;;4989301;28;20045;-75
2023/09/05 00:21:56;;;;;;;7.97;7.18;;;15.80;99.90;;;;;;4993080;28;20468;-75
2023/09/05 00:24:31;;;;;;;8.85;6.85;;;15.80;99.90;;;;;;4989904;28;20181;-75
2023/09/05 00:27:01;;;;;;;9.00;7.60;;;15.80;99.90;;;;;;4988669;28;20053;-75
2023/09/05 00:29:30;;;;;;;8.18;7.32;;;15.70;99.90;;;;;;4991160;28;20038;-76
2023/09/05 00:31:58;;;;;;;9.65;7.68;;;15.70;99.90;;;;;;4988938;28;20478;-75
2023/09/05 00:34:26;;;;;;;10.05;7.85;;;15.70;99.90;;;;;;4972787;28;20038;-76
2023/09/05 00:36:52;;;;;;;7.22;6.53;;;15.70;99.90;;;;;;4988228;28;20073;-75
2023/09/05 00:39:19;;;;;;;8.48;7.65;;;15.70;99.90;;;;;;4974493;28;20066;-75
2023/09/05 00:41:45;;;;;;;9.00;7.15;;;15.60;99.90;;;;;;4990019;28;20449;-75
2023/09/05 00:44:13;;;;;;;9.05;7.00;;;15.60;99.90;;;;;;4974126;28;20085;-75
2023/09/05 00:46:40;;;;;;;8.85;7.30;;;15.60;99.90;;;;;;4989018;28;20050;-75
2023/09/05 00:49:06;;;;;;;10.98;7.78;;;15.60;99.90;;;;;;4973345;28;20050;-75
2023/09/05 00:51:32;;;;;;;9.57;7.05;;;15.60;99.90;;;;;;4989361;28;20061;-75
2023/09/05 00:54:06;;;;;;;9.63;7.68;;;15.50;99.90;;;;;;4989250;28;20042;-75
2023/09/05 00:56:32;;;;;;;9.00;7.80;;;15.50;99.90;;;;;;4989438;28;20494;-75
2023/09/05 00:58:59;;;;;;;12.85;7.95;;;15.50;99.90;;;;;;4989371;28;20074;-75
2023/09/05 01:01:24;;;;;;;8.75;7.38;;;15.50;99.90;;;;;;4989859;28;20493;-75
2023/09/05 01:03:51;;;;;;;10.65;7.93;;;15.50;99.90;;;;;;4988039;28;20031;-75
2023/09/05 01:06:31;;;;;;;11.13;8.75;;;15.40;99.90;;;;;;4973127;28;20038;-75
2023/09/05 01:09:05;;;;;;;12.90;8.48;;;15.40;99.90;;;;;;4978756;28;20070;-75
2023/09/05 01:11:32;;;;;;;9.23;8.10;;;15.40;99.90;;;;;;4989768;28;20110;-75
2023/09/05 01:13:57;;;;;;;9.68;7.97;;;15.40;99.90;;;;;;4991073;28;20370;-75
2023/09/05 01:16:23;;;;;;;8.63;7.53;;;15.40;99.90;;;;;;4993800;28;20096;-75
2023/09/05 01:18:48;;;;;;;10.90;8.07;;;15.30;99.90;;;;;;4995295;28;20049;-76
2023/09/05 01:21:31;;;;;;;9.50;7.43;;;15.30;99.90;;;;;;4989352;28;20042;-75
2023/09/05 01:24:13;;;;;;;8.37;7.50;;;15.30;99.90;;;;;;4987387;28;20134;-76
2023/09/05 01:26:40;;;;;;;9.63;7.53;;;15.30;99.90;;;;;;4988574;28;20286;-75
2023/09/05 01:29:06;;;;;;;8.68;7.78;;;15.30;99.90;;;;;;4988791;28;20089;-75
2023/09/05 01:31:33;;;;;;;9.05;7.50;;;15.30;99.90;;;;;;4988118;28;20099;-75
2023/09/05 01:33:59;;;;;;;9.15;7.78;;;15.30;99.90;;;;;;4988168;28;20038;-75
2023/09/05 01:36:24;;;;;;;9.07;7.82;;;15.30;99.90;;;;;;4986950;28;20382;-75
2023/09/05 01:38:50;;;;;;;8.50;7.60;;;15.30;99.90;;;;;;4989031;28;20046;-76
2023/09/05 01:41:15;;;;;;;8.93;7.65;;;15.30;99.90;;;;;;4987977;28;20424;-76
2023/09/05 01:43:41;;;;;;;10.10;8.23;;;15.20;99.90;;;;;;4987989;28;20046;-75
2023/09/05 01:46:07;;;;;;;8.93;7.75;;;15.20;99.90;;;;;;4987498;28;20460;-75
2023/09/05 01:48:32;;;;;;;8.95;7.88;;;15.20;99.90;;;;;;4989445;28;20041;-75
2023/09/05 01:50:58;;;;;;;10.10;7.40;;;15.20;99.90;;;;;;4972569;28;20516;-75
2023/09/05 01:53:24;;;;;;;9.50;8.10;;;15.20;99.90;;;;;;4983743;28;20049;-75
2023/09/05 01:55:49;;;;;;;8.50;7.65;;;15.10;99.90;;;;;;4984398;28;20046;-75
2023/09/05 01:58:15;;;;;;;9.38;7.60;;;15.10;99.90;;;;;;4989526;28;20041;-75
2023/09/05 02:00:40;;;;;;;8.30;7.40;;;15.10;99.90;;;;;;4973732;28;20046;-76
2023/09/05 02:03:06;;;;;;;9.40;8.15;;;15.10;99.90;;;;;;4988509;28;20039;-76
2023/09/05 02:05:32;;;;;;;8.45;7.28;;;15.00;99.90;;;;;;4987542;28;20109;-76
2023/09/05 02:07:57;;;;;;;10.10;7.32;;;15.00;99.90;;;;;;4989278;28;20072;-75
2023/09/05 02:10:23;;;;;;;11.35;8.05;;;15.00;99.90;;;;;;4987655;28;20069;-75
2023/09/05 02:12:49;;;;;;;9.57;7.97;;;15.00;99.90;;;;;;4988608;28;20039;-76
2023/09/05 02:15:15;;;;;;;8.68;7.40;;;15.00;99.90;;;;;;4980975;28;20416;-76
2023/09/05 02:17:40;;;;;;;9.90;8.10;;;14.90;99.90;;;;;;4967948;28;20031;-76
2023/09/05 02:20:07;;;;;;;9.35;8.23;;;14.90;99.90;;;;;;4988098;28;20464;-75
2023/09/05 02:22:32;;;;;;;9.85;8.23;;;14.90;99.90;;;;;;4973057;28;20070;-75
2023/09/05 02:24:59;;;;;;;9.45;8.27;;;14.90;99.90;;;;;;4988299;28;20065;-76
2023/09/05 02:27:26;;;;;;;9.40;8.40;;;14.90;99.90;;;;;;4987205;28;20061;-75
2023/09/05 02:29:56;;;;;;;12.95;9.00;;;14.90;99.90;;;;;;4990463;28;20042;-75
2023/09/05 02:32:22;;;;;;;9.32;7.97;;;14.80;99.90;;;;;;4988053;28;20046;-75
2023/09/05 02:34:52;;;;;;;9.23;8.30;;;14.80;99.90;;;;;;4971534;28;20117;-75
2023/09/05 02:37:18;;;;;;;10.82;8.23;;;14.80;99.90;;;;;;5005072;28;20045;-75
2023/09/05 02:39:44;;;;;;;9.55;8.07;;;14.80;99.90;;;;;;4992730;28;20501;-75
2023/09/05 02:42:09;;;;;;;9.15;8.25;;;14.80;99.90;;;;;;4973900;28;20042;-75
2023/09/05 02:44:35;;;;;;;11.10;8.23;;;14.70;99.90;;;;;;4991910;28;20068;-75
2023/09/05 02:47:01;;;;;;;11.32;8.77;;;14.70;99.90;;;;;;4976225;28;20604;-76
2023/09/05 02:49:26;;;;;;;9.43;8.23;;;14.70;99.90;;;;;;4973938;28;20043;-75
2023/09/05 02:51:52;;;;;;;10.18;8.20;;;14.70;99.90;;;;;;4992844;28;20282;-75
2023/09/05 02:54:17;;;;;;;10.13;8.88;;;14.60;99.90;;;;;;4991964;28;20100;-75
2023/09/05 02:56:43;;;;;;;10.52;8.75;;;14.60;99.90;;;;;;4990203;28;20035;-76
2023/09/05 02:59:09;;;;;;;10.32;8.70;;;14.70;99.90;;;;;;4975533;28;20122;-76
2023/09/05 03:01:34;;;;;;;11.95;8.18;;;14.60;99.90;;;;;;4992198;28;20034;-75
2023/09/05 03:04:00;;;;;;;10.30;8.13;;;14.60;99.90;;;;;;4990725;28;20030;-75
2023/09/05 03:06:25;;;;;;;10.85;8.75;;;14.60;99.90;;;;;;4991208;28;20065;-75
2023/09/05 03:08:51;;;;;;;11.30;8.50;;;14.60;99.90;;;;;;4990813;28;20552;-75
2023/09/05 03:11:17;;;;;;;12.40;8.80;;;14.60;99.90;;;;;;4992402;28;20130;-75
2023/09/05 03:13:44;;;;;;;11.32;8.93;;;14.60;99.90;;;;;;4990442;28;20122;-76
2023/09/05 03:16:11;;;;;;;10.90;9.10;;;14.60;99.90;;;;;;4990705;28;20042;-75
2023/09/05 03:18:36;;;;;;;10.57;9.18;;;14.60;99.90;;;;;;4991029;28;20062;-75
2023/09/05 03:21:02;;;;;;;10.82;9.00;;;14.60;99.90;;;;;;4991160;28;20066;-75
2023/09/05 03:23:27;;;;;;;11.60;9.27;;;14.70;99.90;;;;;;4992876;28;20567;-75
2023/09/05 03:25:53;;;;;;;11.32;8.73;;;14.60;99.90;;;;;;4990746;28;20076;-75
2023/09/05 03:28:19;;;;;;;11.82;8.90;;;14.60;99.90;;;;;;4976846;28;20325;-75
2023/09/05 03:30:45;;;;;;;12.85;8.82;;;14.60;99.90;;;;;;4990204;28;20097;-75
2023/09/05 03:33:11;;;;;;;11.55;8.68;;;14.60;99.90;;;;;;4993561;28;20042;-75
2023/09/05 03:35:37;;;;;;;10.27;8.85;;;14.60;99.90;;;;;;4989217;28;20122;-75
2023/09/05 03:38:05;;;;;;;10.52;8.95;;;14.60;99.90;;;;;;4972435;28;20438;-75
2023/09/05 03:40:30;;;;;;;12.43;8.38;;;14.60;99.90;;;;;;4986637;28;20046;-75
2023/09/05 03:42:56;;;;;;;9.30;8.30;;;14.50;99.90;;;;;;4991454;28;20125;-75
2023/09/05 03:45:21;;;;;;;9.70;8.68;;;14.50;99.90;;;;;;4988589;28;20049;-76
2023/09/05 03:47:47;;;;;;;9.93;8.32;;;14.50;99.90;;;;;;4990039;28;20045;-75
2023/09/05 03:50:17;;;;;;;9.60;8.60;;;14.50;99.90;;;;;;4989591;28;20034;-75
2023/09/05 03:52:44;;;;;;;8.95;7.47;;;14.50;99.90;;;;;;4990793;28;20047;-75
2023/09/05 03:55:09;;;;;;;9.43;8.18;;;14.40;99.90;;;;;;4974638;28;20042;-75
2023/09/05 03:57:35;;;;;;;10.02;8.63;;;14.40;99.90;;;;;;4991273;28;20026;-75
2023/09/05 04:00:00;;;;;;;11.70;8.52;;;14.40;99.90;;;;;;4975428;28;20042;-75
2023/09/05 04:02:26;;;;;;;10.82;9.48;;;14.30;99.90;;;;;;4990713;28;20052;-75
2023/09/05 04:04:55;;;;;;;12.82;9.05;;;14.30;99.90;;;;;;4991399;28;20042;-75
2023/09/05 04:07:21;;;;;;;10.32;9.23;;;14.30;99.90;;;;;;4988860;28;20057;-75
2023/09/05 04:09:47;;;;;;;10.57;9.18;;;14.30;99.90;;;;;;4990125;28;20034;-76
2023/09/05 04:12:14;;;;;;;11.63;9.43;;;14.30;99.90;;;;;;4990805;28;20181;-75
2023/09/05 04:14:39;;;;;;;12.48;9.27;;;14.30;99.90;;;;;;4989709;28;20046;-75
2023/09/05 04:17:05;;;;;;;11.20;8.70;;;14.30;99.90;;;;;;4987666;28;20042;-75
2023/09/05 04:19:31;;;;;;;12.20;9.27;;;14.30;99.90;;;;;;4990311;28;20401;-75
2023/09/05 04:21:56;;;;;;;11.35;8.90;;;14.30;99.90;;;;;;4974738;28;20041;-75
2023/09/05 04:24:22;;;;;;;12.25;9.23;;;14.20;99.90;;;;;;4988825;28;20413;-75
2023/09/05 04:26:47;;;;;;;11.48;9.30;;;14.20;99.90;;;;;;4973753;28;20042;-75
2023/09/05 04:29:13;;;;;;;10.20;9.02;;;14.20;99.90;;;;;;4990590;28;20040;-74
2023/09/05 04:31:38;;;;;;;11.27;9.48;;;14.20;99.90;;;;;;4974514;28;20038;-75
2023/09/05 04:34:04;;;;;;;11.77;9.38;;;14.20;99.90;;;;;;4990023;28;20097;-75
2023/09/05 04:36:29;;;;;;;11.60;9.77;;;14.10;99.90;;;;;;4992369;28;20038;-75
2023/09/05 04:38:55;;;;;;;11.05;8.38;;;14.10;99.90;;;;;;4989514;28;20045;-75
2023/09/05 04:41:20;;;;;;;14.57;9.57;;;14.10;99.90;;;;;;4974188;28;20490;-75
2023/09/05 04:43:47;;;;;;;11.07;8.68;;;14.10;99.90;;;;;;4989719;28;20143;-75
2023/09/05 04:46:14;;;;;;;11.35;8.63;;;14.10;99.90;;;;;;4989250;28;20061;-75
2023/09/05 04:48:39;;;;;;;9.60;8.60;;;14.00;99.90;;;;;;4988056;28;20113;-75
2023/09/05 04:51:06;;;;;;;10.70;8.80;;;14.00;99.90;;;;;;4988204;28;20046;-75
2023/09/05 04:53:32;;;;;;;9.75;8.60;;;13.90;99.90;;;;;;4972650;28;20042;-75
2023/09/05 04:56:00;;;;;;;9.52;8.52;;;13.90;99.90;;;;;;4987976;28;20051;-75
2023/09/05 04:58:27;;;;;;;10.13;8.48;;;13.80;99.90;;;;;;4989291;28;20042;-75
2023/09/05 05:00:56;;;;;;;11.32;8.20;;;13.80;99.90;;;;;;4989187;28;20053;-75
2023/09/05 05:03:23;;;;;;;10.35;8.80;;;13.80;99.90;;;;;;4987104;28;20455;-75
2023/09/05 05:05:49;;;;;;;11.40;9.23;;;13.80;99.90;;;;;;4983454;28;20041;-75
2023/09/05 05:08:15;;;;;;;11.35;10.15;;;13.80;99.90;;;;;;4989793;28;20525;-75
2023/09/05 05:10:40;;;;;;;11.85;9.88;;;13.80;99.90;;;;;;4989072;28;20372;-74
2023/09/05 05:13:06;;;;;;;10.30;8.90;;;13.90;99.90;;;;;;4989028;28;20411;-74
2023/09/05 05:15:31;;;;;;;10.30;8.65;;;13.90;99.90;;;;;;4988590;28;20508;-74
2023/09/05 05:17:57;;;;;;;10.80;8.63;;;14.00;99.90;;;;;;4989747;28;20113;-75
2023/09/05 05:20:23;;;;;;;10.40;8.07;;;14.00;99.90;;;;;;4974066;28;20372;-75
2023/09/05 05:22:48;;;;;;;8.68;7.72;;;14.00;99.90;;;;;;4972336;28;20030;-75
2023/09/05 05:25:14;;;;;;;10.73;8.82;;;14.10;99.90;;;;;;4968955;28;20507;-75
2023/09/05 05:27:39;;;;;;;9.90;8.57;;;14.10;99.90;;;;;;4990697;28;20057;-74
2023/09/05 05:30:06;;;;;;;11.90;9.32;;;14.20;99.90;;;;;;4985017;28;20420;-75
2023/09/05 05:32:31;;;;;;;12.57;8.45;;;14.20;99.90;;;;;;4971162;28;20042;-75
2023/09/05 05:34:57;;;;;;;10.63;8.60;;;14.30;99.90;;;;;;4986235;28;20524;-74
2023/09/05 05:37:22;;;;;;;11.10;8.68;;;14.30;99.90;;;;;;4988093;28;20409;-74
2023/09/05 05:39:48;;;;;;;10.20;8.05;;;14.30;99.90;;;;;;4987465;28;20497;-74
2023/09/05 05:42:13;;;;;;;12.30;9.15;;;14.40;99.90;;;;;;4991735;28;20525;-74
2023/09/05 05:44:39;;;;;;;12.55;9.15;;;14.40;99.90;;;;;;4990379;28;20043;-74
2023/09/05 05:47:05;;;;;;;11.63;9.13;;;14.50;99.90;;;;;;4989772;28;20482;-74
2023/09/05 05:49:31;;;;;;;9.75;8.27;;;14.60;99.90;;;;;;4984092;28;20043;-74
2023/09/05 05:51:57;;;;;;;13.82;9.95;;;14.60;99.90;;;;;;4987449;28;20413;-74
2023/09/05 05:54:23;;;;;;;13.73;9.90;;;14.70;99.90;;;;;;4967626;28;20058;-74
2023/09/05 05:56:53;;;;;;;12.70;10.27;;;14.80;99.90;;;;;;4983501;28;20043;-74
2023/09/05 05:59:19;;;;;;;12.88;10.60;;;14.90;99.90;;;;;;4990401;28;20065;-74
2023/09/05 06:01:44;;;;;;;12.88;10.48;;;15.00;99.90;;;;;;4986420;28;20039;-74
2023/09/05 06:04:12;;;;;;;13.30;10.88;;;15.10;99.90;;;;;;4989348;28;20126;-74
2023/09/05 06:06:39;;;;;;;12.38;10.98;;;15.10;99.90;;;;;;4987648;28;20046;-74
2023/09/05 06:09:05;;;;;;;14.38;10.43;;;15.20;99.90;;;;;;4986649;28;20046;-75
2023/09/05 06:11:30;;;;;;;13.07;10.55;;;15.30;99.90;;;;;;4977042;28;20049;-75
2023/09/05 06:13:56;;;;;;;12.05;10.82;;;15.30;99.90;;;;;;4988117;28;20126;-75
2023/09/05 06:16:21;;;;;;;11.50;9.82;;;15.40;99.90;;;;;;4975299;28;20034;-75
2023/09/05 06:18:47;;;;;;;12.85;9.80;;;15.40;99.90;;;;;;4999892;28;20080;-74
2023/09/05 06:21:13;;;;;;;12.45;10.77;;;15.50;99.90;;;;;;4971282;28;20070;-75
2023/09/05 06:23:38;;;;;;;14.32;10.27;;;15.60;99.90;;;;;;4991079;28;20311;-75
2023/09/05 06:26:04;;;;;;;11.80;10.05;;;15.60;99.90;;;;;;4986194;28;20129;-75
2023/09/05 06:28:29;;;;;;;11.50;10.30;;;15.70;99.90;;;;;;4989920;28;20038;-74
2023/09/05 06:30:59;;;;;;;12.43;10.23;;;15.80;99.90;;;;;;4990065;28;20039;-73
2023/09/05 06:33:25;;;;;;;11.88;10.35;;;15.90;99.90;;;;;;4988071;28;20400;-72
2023/09/05 06:35:51;;;;;;;12.80;10.68;;;15.90;99.90;;;;;;4991858;28;20473;-73
2023/09/05 06:38:17;;;;;;;12.63;10.52;;;16.10;99.90;;;;;;4993328;28;20072;-73
2023/09/05 06:40:42;;;;;;;13.15;10.80;;;16.10;99.90;;;;;;4990770;28;20126;-72
2023/09/05 06:43:09;;;;;;;12.20;10.23;;;16.20;99.90;;;;;;4990284;28;20464;-73
2023/09/05 06:45:35;;;;;;;11.63;10.43;;;16.30;99.90;;;;;;4989952;28;20039;-73
2023/09/05 06:48:01;;;;;;;11.52;10.23;;;16.40;99.90;;;;;;4989712;28;20108;-73
2023/09/05 06:50:26;;;;;;;11.77;10.25;;;16.50;99.90;;;;;;4989909;28;20130;-73
2023/09/05 06:52:52;;;;;;;12.15;9.50;;;16.60;99.90;;;;;;4989757;28;20042;-73
2023/09/05 06:55:18;;;;;;;13.55;10.15;;;16.80;99.90;;;;;;4989504;28;20045;-73
2023/09/05 06:57:43;;;;;;;11.63;9.63;;;16.90;99.90;;;;;;4991196;28;20129;-73
2023/09/05 07:00:10;;;;;;;11.90;10.70;;;17.00;99.90;;;;;;4974477;28;20050;-73
2023/09/05 07:02:35;;;;;;;12.70;9.52;;;17.20;99.90;;;;;;4988280;28;20039;-73
2023/09/05 07:05:02;;;;;;;12.27;9.85;;;17.30;99.90;;;;;;5007366;28;20030;-75
2023/09/05 07:07:28;;;;;;;11.23;10.02;;;17.40;99.90;;;;;;4988665;28;20049;-75
2023/09/05 07:09:54;;;;;;;11.57;9.35;;;17.50;99.90;;;;;;4991452;28;20034;-75
2023/09/05 07:12:19;;;;;;;11.25;9.18;;;17.60;99.90;;;;;;4992720;28;20042;-74
2023/09/05 07:14:45;;;;;;;13.98;9.02;;;17.80;99.90;;;;;;4992015;28;20050;-75
2023/09/05 07:17:11;;;;;;;10.85;8.93;;;17.90;99.90;;;;;;4991515;28;20323;-75
2023/09/05 07:19:37;;;;;;;10.45;9.30;;;18.00;99.90;;;;;;4992949;28;20049;-75
2023/09/05 07:22:04;;;;;;;11.55;9.38;;;18.20;99.90;;;;;;4990550;28;20042;-75
2023/09/05 07:24:30;;;;;;;10.43;8.55;;;18.30;99.90;;;;;;4983728;28;20508;-74
2023/09/05 07:26:55;;;;;;;9.60;8.38;;;18.50;99.90;;;;;;4993314;28;20044;-75
2023/09/05 07:29:23;;;;;;;10.25;8.18;;;18.60;99.90;;;;;;4991834;28;20038;-75
2023/09/05 07:31:48;;;;;;;9.27;8.02;;;18.70;99.90;;;;;;4990695;28;20042;-73
2023/09/05 07:34:14;;;;;;;9.25;7.47;;;18.90;99.90;;;;;;4991138;28;20125;-73
2023/09/05 07:36:40;;;;;;;10.48;7.38;;;19.10;99.90;;;;;;4987420;28;20042;-72
2023/09/05 07:39:05;;;;;;;8.73;7.38;;;19.20;99.90;;;;;;4991281;28;20042;-73
2023/09/05 07:41:32;;;;;;;11.10;7.30;;;19.30;99.90;;;;;;4991227;28;20096;-72
2023/09/05 07:43:58;;;;;;;9.35;7.20;;;19.40;99.90;;;;;;4989776;28;20060;-73
2023/09/05 07:46:24;;;;;;;9.43;6.68;;;19.40;99.90;;;;;;4989628;28;20042;-73
2023/09/05 07:48:49;;;;;;;9.02;7.40;;;19.60;99.90;;;;;;4975324;28;20405;-73
2023/09/05 07:51:15;;;;;;;9.60;6.65;;;19.60;99.90;;;;;;4991301;28;20421;-73
2023/09/05 07:53:47;;;;;;;7.38;6.43;;;19.80;99.90;;;;;;4991640;28;20041;-73
2023/09/05 07:56:12;;;;;;;8.35;6.43;;;20.00;99.90;;;;;;4990868;28;20109;-73
2023/09/05 07:58:38;;;;;;;7.32;6.55;;;20.10;99.90;;;;;;4991008;28;20213;-73
2023/09/05 08:01:09;;;;;;;9.80;7.20;;;20.20;99.90;;;;;;4990891;28;20085;-73
2023/09/05 08:03:35;;;;;;;8.02;6.82;;;20.30;99.90;;;;;;4990328;28;20401;-73
2023/09/05 08:06:00;;;;;;;8.63;7.28;;;20.40;99.90;;;;;;4989300;28;20047;-73
2023/09/05 08:08:26;;;;;;;8.02;6.78;;;20.50;99.90;;;;;;4992229;28;20049;-73
2023/09/05 08:10:51;;;;;;;7.75;6.60;;;20.60;99.90;;;;;;4975126;28;20049;-73
2023/09/05 08:13:17;;;;;;;9.25;6.50;;;20.70;99.90;;;;;;4992298;28;20050;-73
2023/09/05 08:15:44;;;;;;;8.27;6.32;;;20.70;99.90;;;;;;4995642;28;20049;-73
2023/09/05 08:18:11;;;;;;;7.03;6.15;;;20.80;99.90;;;;;;4990505;28;20038;-73
2023/09/05 08:20:39;;;;;;;10.07;5.82;;;20.90;99.90;;;;;;4991520;28;20054;-72
2023/09/05 08:23:05;;;;;;;7.20;5.75;;;21.00;99.90;;;;;;4990641;28;20054;-73
2023/09/05 08:25:30;;;;;;;6.05;5.45;;;21.10;99.90;;;;;;4994779;28;20057;-73
2023/09/05 08:27:56;;;;;;;7.28;5.00;;;21.20;99.90;;;;;;4978689;28;20097;-73
2023/09/05 08:30:24;;;;;;;5.88;4.80;;;21.40;99.90;;;;;;4991799;28;20046;-73
2023/09/05 08:32:54;;;;;;;6.72;4.43;;;21.50;99.90;;;;;;4991604;28;20073;-73
2023/09/05 08:35:19;;;;;;;6.05;4.30;;;21.60;99.90;;;;;;4991135;28;20045;-73
2023/09/05 08:37:45;;;;;;;6.05;4.03;;;21.70;99.90;;;;;;4991443;28;20046;-73
2023/09/05 08:40:11;;;;;;;5.38;4.20;;;21.80;99.90;;;;;;4991776;28;20402;-73
2023/09/05 08:42:38;;;;;;;6.95;4.60;;;21.90;99.90;;;;;;4991421;28;20042;-73
2023/09/05 08:45:04;;;;;;;5.15;4.07;;;22.00;99.90;;;;;;4975125;28;20096;-72
2023/09/05 08:47:30;;;;;;;5.75;4.05;;;22.10;99.90;;;;;;4991327;28;20081;-73
2023/09/05 08:49:59;;;;;;;5.63;3.83;;;22.10;99.90;;;;;;4992796;28;20228;-73
2023/09/05 08:52:31;;;;;;;6.57;3.67;;;22.20;99.90;;;;;;4991110;28;20557;-73
2023/09/05 08:54:57;;;;;;;5.03;3.30;;;22.30;99.90;;;;;;4990602;28;20061;-73
2023/09/05 08:57:25;;;;;;;5.40;3.47;;;22.40;99.90;;;;;;4990669;28;20038;-73
2023/09/05 08:59:50;;;;;;;6.43;4.40;;;22.50;99.90;;;;;;4990669;28;20038;-73
2023/09/05 09:02:16;;;;;;;6.03;3.85;;;22.50;99.90;;;;;;4974668;28;20062;-73
2023/09/05 09:04:53;;;;;;;3.65;3.33;;;22.60;99.90;;;;;;4992081;28;20101;-74
2023/09/05 09:07:24;;;;;;;5.13;3.72;;;22.60;99.90;;;;;;4990697;28;20050;-73
2023/09/05 09:09:50;;;;;;;5.45;3.58;;;22.70;99.90;;;;;;4991186;28;20398;-73
2023/09/05 09:12:15;;;;;;;6.25;3.47;;;22.70;99.90;;;;;;4989184;28;20042;-74
2023/09/05 09:14:43;;;;;;;4.03;3.42;;;22.70;99.90;;;;;;5006333;28;20413;-75
2023/09/05 09:17:09;;;;;;;5.07;3.70;;;22.80;99.90;;;;;;4990329;28;20141;-75
2023/09/05 09:19:38;;;;;;;4.13;3.30;;;22.80;99.90;;;;;;4990841;28;20048;-75
2023/09/05 09:22:03;;;;;;;4.88;3.28;;;22.90;99.90;;;;;;4990811;28;20537;-75
2023/09/05 09:24:33;;;;;;;5.18;3.55;;;22.90;99.90;;;;;;4992176;28;20077;-75
2023/09/05 09:27:04;;;;;;;5.80;3.80;;;22.90;99.90;;;;;;4974098;28;20069;-75
2023/09/05 09:29:32;;;;;;;5.03;3.58;;;23.00;99.90;;;;;;4990203;28;20053;-75
2023/09/05 09:32:03;;;;;;;5.93;4.03;;;23.00;99.90;;;;;;4990494;28;20397;-76
2023/09/05 09:34:30;;;;;;;5.90;3.40;;;23.00;99.90;;;;;;4992024;28;20441;-75
2023/09/05 09:36:58;;;;;;;5.38;3.22;;;23.10;99.90;;;;;;4989847;28;20093;-75
2023/09/05 09:39:23;;;;;;;4.85;3.40;;;23.10;99.90;;;;;;4990305;28;20054;-75
2023/09/05 09:41:49;;;;;;;7.28;3.30;;;23.20;99.90;;;;;;4990462;28;20109;-75
2023/09/05 09:44:26;;;;;;;9.15;3.50;;;23.20;99.90;;;;;;4989955;28;20110;-74
2023/09/05 09:46:53;;;;;;;5.45;3.38;;;23.20;99.90;;;;;;4990194;28;20049;-74
2023/09/05 09:49:19;;;;;;;7.40;3.13;;;23.30;99.90;;;;;;4989611;28;20121;-73
2023/09/05 09:51:51;;;;;;;3.97;3.03;;;23.30;99.90;;;;;;4990146;28;20117;-74
2023/09/05 09:54:18;;;;;;;4.82;3.28;;;23.40;99.90;;;;;;4989528;28;20034;-73
2023/09/05 09:56:46;;;;;;;5.15;3.10;;;23.50;99.90;;;;;;4989073;28;20134;-74
2023/09/05 09:59:12;;;;;;;4.43;3.10;;;23.60;99.90;;;;;;4988895;28;20058;-74
2023/09/05 10:01:38;;;;;;;5.45;3.20;;;23.70;99.90;;;;;;4987336;28;20034;-74
2023/09/05 10:04:04;;;;;;;4.80;2.90;;;23.70;99.90;;;;;;4983043;28;20411;-74
2023/09/05 10:06:30;;;;;;;4.38;3.13;;;23.80;99.90;;;;;;4988732;28;20039;-76
2023/09/05 10:08:57;;;;;;;5.50;3.17;;;23.90;99.90;;;;;;4972980;28;20470;-77
2023/09/05 10:11:24;;;;;;;4.25;3.05;;;24.00;99.90;;;;;;4984492;28;20521;-76
2023/09/05 10:13:51;;;;;;;4.78;3.33;;;24.00;99.90;;;;;;4986236;28;20043;-77
2023/09/05 10:16:18;;;;;;;5.57;3.00;;;24.10;99.90;;;;;;4998167;28;20069;-77
2023/09/05 10:18:44;;;;;;;5.55;2.80;;;24.20;99.90;;;;;;4985851;28;20097;-76
2023/09/05 10:21:11;;;;;;;4.72;2.80;;;24.30;99.90;;;;;;4984608;28;20039;-76
2023/09/05 10:23:38;;;;;;;3.95;2.72;;;24.30;99.90;;;;;;4981008;28;20042;-75
2023/09/05 10:26:04;;;;;;;5.28;3.10;;;24.40;99.90;;;;;;4986596;28;20501;-75
2023/09/05 10:28:31;;;;;;;5.35;2.90;;;24.50;99.90;;;;;;4987624;28;20048;-74
2023/09/05 10:31:05;;;;;;;3.72;2.78;;;24.60;99.90;;;;;;4981126;28;20109;-74
2023/09/05 10:33:33;;;;;;;4.47;2.95;;;24.70;99.90;;;;;;4989707;28;20038;-75
2023/09/05 10:36:00;;;;;;;4.72;2.70;;;24.80;99.90;;;;;;4989322;28;20060;-75
2023/09/05 10:38:28;;;;;;;4.05;2.55;;;24.80;99.90;;;;;;4989634;28;20050;-75
2023/09/05 10:40:54;;;;;;;3.97;2.28;;;24.90;99.90;;;;;;4989921;28;21160;-74
2023/09/05 10:43:22;;;;;;;3.00;2.28;;;25.00;99.90;;;;;;4989961;28;20506;-75
2023/09/05 10:45:56;;;;;;;5.28;2.50;;;25.10;99.90;;;;;;4989412;28;20088;-75
2023/09/05 10:48:32;;;;;;;;;;;25.20;99.90;;;;;;4990042;28;20050;-75
2023/09/05 10:51:07;;;;;;;4.53;2.35;;;25.30;99.90;;;;;;4989815;28;19924;-75
2023/09/05 10:53:38;;;;;;;4.63;2.60;;;25.40;99.90;;;;;;4989868;28;20042;-74
2023/09/05 10:56:04;;;;;;;3.58;2.10;;;25.50;99.90;;;;;;4990321;28;20402;-75
2023/09/05 10:58:43;;;;;;;4.63;2.30;;;25.60;99.90;;;;;;4994531;28;20030;-75
2023/09/05 11:01:30;;;;;;;3.13;2.20;;;25.70;99.90;;;;;;4993346;28;20053;-76
2023/09/05 11:03:58;;;;;;;5.47;2.38;;;25.80;99.90;;;;;;4983354;28;20050;-75
2023/09/05 11:06:25;;;;;;;5.22;2.10;;;25.90;99.90;;;;;;4993150;28;20167;-74
2023/09/05 11:09:06;;;;;;;3.05;2.35;;;26.00;99.90;;;;;;4973919;28;20394;-75
2023/09/05 11:11:43;;;;;;;4.93;2.00;;;26.10;99.90;;;;;;4977094;28;20173;-76
2023/09/05 11:14:08;;;;;;;3.35;2.17;;;26.30;99.90;;;;;;4993369;28;20121;-74
2023/09/05 11:16:49;;;;;;;3.97;2.10;;;26.40;99.90;;;;;;4989853;28;20125;-78
2023/09/05 11:19:38;;;;;;;2.90;2.00;;;26.50;99.90;;;;;;4986637;28;20042;-75
2023/09/05 11:22:11;;;;;;;3.72;1.92;;;26.70;99.90;;;;;;4976070;28;20041;-75
2023/09/05 11:24:45;;;;;;;3.58;2.15;;;26.90;99.90;;;;;;4981303;28;20078;-75
2023/09/05 11:27:12;;;;;;;7.50;2.55;;;27.00;99.90;;;;;;4994231;28;20039;-75
2023/09/05 11:29:39;;;;;;;3.85;1.90;;;27.10;99.90;;;;;;4987749;28;20047;-77
2023/09/05 11:32:06;;;;;;;3.20;2.05;;;27.20;99.90;;;;;;4991276;28;20544;-76
2023/09/05 11:34:33;;;;;;;2.60;1.77;;;27.40;99.90;;;;;;4990083;28;20038;-76
2023/09/05 11:37:00;;;;;;;4.03;2.03;;;27.50;99.90;;;;;;4988919;28;20539;-75
2023/09/05 11:39:29;;;;;;;2.65;1.75;;;27.60;99.90;;;;;;4991844;28;20034;-76
2023/09/05 11:41:58;;;;;;;3.63;1.80;;;27.70;99.90;;;;;;4989249;28;20066;-78
2023/09/05 11:44:31;;;;;;;4.03;1.90;;;27.80;99.90;;;;;;4985096;28;20042;-77
2023/09/05 11:46:58;;;;;;;2.40;1.80;;;27.90;99.90;;;;;;4988087;28;20457;-76
2023/09/05 11:49:23;;;;;;;2.85;1.70;;;28.10;99.90;;;;;;4991015;28;20110;-78
2023/09/05 11:51:49;;;;;;;3.35;1.80;;;28.20;99.90;;;;;;4992222;28;20042;-75
2023/09/05 11:54:15;;;;;;;3.00;1.52;;;28.30;99.90;;;;;;4991129;28;20088;-77
2023/09/05 11:56:41;;;;;;;3.35;1.90;;;28.40;99.90;;;;;;4991960;28;20042;-74
2023/09/05 11:59:07;;;;;;;2.83;1.70;;;28.50;99.90;;;;;;4976279;28;20796;-77
2023/09/05 12:01:32;;;;;;;2.28;1.85;;;28.70;99.90;;;;;;4990186;28;20030;-77
2023/09/05 12:04:06;;;;;;;2.67;1.65;;;28.80;99.90;;;;;;4992833;28;20049;-77
2023/09/05 12:06:35;;;;;;;2.88;1.60;;;28.90;99.90;;;;;;4994004;28;20181;-77
2023/09/05 12:09:01;;;;;;;3.78;1.60;;;29.10;99.90;;;;;;4992087;28;20034;-77
2023/09/05 12:11:27;;;;;;;1.65;1.50;;;29.20;99.90;;;;;;4973637;28;20386;-76
2023/09/05 12:13:57;;;;;;;5.35;2.00;;;29.30;99.90;;;;;;4988527;28;20046;-76
2023/09/05 12:16:24;;;;;;;2.88;1.80;;;29.30;99.90;;;;;;4991534;28;20117;-77
2023/09/05 12:19:00;;;;;;;2.90;1.70;;;29.50;99.90;;;;;;4992442;28;20041;-77
2023/09/05 12:21:42;;;;;;;4.65;1.73;;;29.60;99.90;;;;;;4990027;28;20070;-76
2023/09/05 12:24:21;;;;;;;3.28;1.90;;;29.70;99.90;;;;;;5003290;28;20043;-76
2023/09/05 12:26:49;;;;;;;3.20;1.77;;;29.90;99.90;;;;;;4987788;28;20146;-78
2023/09/05 12:29:16;;;;;;;2.47;1.77;;;30.00;99.90;;;;;;4988336;28;20031;-77
2023/09/05 12:31:44;;;;;;;4.75;1.83;;;30.00;99.90;;;;;;4992793;28;20065;-77
2023/09/05 12:34:10;;;;;;;3.67;1.88;;;30.10;99.90;;;;;;4987938;28;20042;-76
2023/09/05 12:36:35;;;;;;;3.80;1.60;;;30.20;99.90;;;;;;4989014;28;20061;-76
2023/09/05 12:39:02;;;;;;;4.63;2.00;;;30.30;99.90;;;;;;4988072;28;20057;-77
2023/09/05 12:41:27;;;;;;;4.88;1.83;;;30.40;99.90;;;;;;4994348;28;20077;-76